Time;durP1;ratioP1;P1;durP2;ratioP2;P2;SDS_P1;SDS_P2;PMS_P1;PMS_P2;Temp;Humidity;BMP_temperature;BMP_pressure;BME280_temperature;BME280_humidity;BME280_pressure;Samples;Min_cycle;Max_cycle;Signal;HPM_P1;HPM_P2
2023/12/15 00:00:50;;;;;;;10.23;8.70;;;5.60;99.90;;;;;;5083136;28;20202;-83
2023/12/15 00:03:19;;;;;;;7.43;5.90;;;5.60;99.90;;;;;;5083623;28;20205;-84
2023/12/15 00:05:46;;;;;;;9.57;8.10;;;5.60;99.90;;;;;;5083764;28;20297;-83
2023/12/15 00:08:12;;;;;;;12.17;10.07;;;5.50;99.90;;;;;;5079048;28;20200;-83
2023/12/15 00:10:39;;;;;;;8.03;6.80;;;5.60;99.90;;;;;;5080887;28;20207;-85
2023/12/15 00:13:06;;;;;;;7.97;6.93;;;5.50;99.90;;;;;;5087081;28;20192;-83
2023/12/15 00:15:33;;;;;;;8.23;6.57;;;5.40;99.90;;;;;;5083704;28;20213;-83
2023/12/15 00:18:00;;;;;;;10.90;8.23;;;5.40;99.90;;;;;;5083670;28;20199;-84
2023/12/15 00:20:28;;;;;;;8.63;7.17;;;5.50;99.90;;;;;;5089105;28;20293;-82
2023/12/15 00:22:55;;;;;;;8.20;7.17;;;5.50;99.90;;;;;;5082111;28;20197;-83
2023/12/15 00:25:22;;;;;;;9.80;7.63;;;5.50;99.90;;;;;;5081196;28;20216;-83
2023/12/15 00:27:49;;;;;;;8.17;7.37;;;5.30;99.90;;;;;;5076989;28;20421;-83
2023/12/15 00:30:16;;;;;;;7.53;6.75;;;5.40;99.90;;;;;;5084566;28;20197;-83
2023/12/15 00:32:44;;;;;;;8.50;7.40;;;5.50;99.90;;;;;;5077935;28;20195;-83
2023/12/15 00:35:10;;;;;;;9.30;8.17;;;5.50;99.90;;;;;;5082993;28;20192;-82
2023/12/15 00:37:39;;;;;;;10.57;8.23;;;5.60;99.90;;;;;;5078046;28;20201;-83
2023/12/15 00:40:07;;;;;;;9.23;8.07;;;5.70;99.90;;;;;;5082378;28;20188;-83
2023/12/15 00:42:34;;;;;;;7.83;7.03;;;5.60;99.90;;;;;;5083559;28;20197;-83
2023/12/15 00:45:01;;;;;;;8.17;7.33;;;5.60;99.90;;;;;;5081642;28;20219;-83
2023/12/15 00:47:28;;;;;;;10.90;7.80;;;5.70;99.90;;;;;;5089469;28;20204;-84
2023/12/15 00:49:55;;;;;;;10.07;8.97;;;5.60;99.90;;;;;;5073361;28;20212;-83
2023/12/15 00:52:22;;;;;;;9.77;8.77;;;5.70;99.90;;;;;;5085812;28;20189;-83
2023/12/15 00:54:50;;;;;;;11.15;9.35;;;5.60;99.90;;;;;;5080095;28;20197;-83
2023/12/15 00:57:16;;;;;;;9.52;8.10;;;5.70;99.90;;;;;;5080681;28;20208;-83
2023/12/15 00:59:44;;;;;;;9.43;7.93;;;5.90;99.90;;;;;;5075897;28;20204;-83
2023/12/15 01:02:11;;;;;;;10.83;8.93;;;5.80;99.90;;;;;;5083827;28;20203;-82
2023/12/15 01:04:38;;;;;;;11.10;8.83;;;5.80;99.90;;;;;;5086115;28;20547;-83
2023/12/15 01:07:05;;;;;;;10.70;9.30;;;5.70;99.90;;;;;;5076884;28;21100;-83
2023/12/15 01:09:31;;;;;;;11.82;8.82;;;5.70;99.90;;;;;;5078562;28;20657;-84
2023/12/15 01:12:00;;;;;;;12.57;9.17;;;5.70;99.90;;;;;;5082211;28;20196;-83
2023/12/15 01:14:27;;;;;;;11.05;8.82;;;5.60;99.90;;;;;;5079999;28;20282;-83
2023/12/15 01:16:54;;;;;;;11.30;9.13;;;5.80;99.90;;;;;;5083532;28;20295;-83
2023/12/15 01:19:21;;;;;;;12.83;10.00;;;5.80;99.90;;;;;;5079219;28;20566;-83
2023/12/15 01:21:48;;;;;;;11.67;9.90;;;5.70;99.90;;;;;;5082946;28;20189;-84
2023/12/15 01:24:14;;;;;;;11.80;9.80;;;5.70;99.90;;;;;;5090202;28;20192;-83
2023/12/15 01:26:41;;;;;;;12.63;10.33;;;5.60;99.90;;;;;;5088395;28;20220;-83
2023/12/15 01:29:10;;;;;;;12.80;9.90;;;5.70;99.90;;;;;;5090804;28;20204;-83
2023/12/15 01:31:36;;;;;;;12.73;10.20;;;5.60;99.90;;;;;;5080745;28;20971;-83
2023/12/15 01:34:03;;;;;;;12.73;10.45;;;5.60;99.90;;;;;;5080836;27;20208;-84
2023/12/15 01:36:30;;;;;;;13.38;10.40;;;5.70;99.90;;;;;;5077054;28;20204;-83
2023/12/15 01:38:57;;;;;;;12.03;9.63;;;5.80;99.90;;;;;;5076337;28;20208;-83
2023/12/15 01:41:24;;;;;;;12.63;10.02;;;5.90;99.90;;;;;;5081664;28;20737;-83
2023/12/15 01:43:51;;;;;;;12.50;10.00;;;5.90;99.90;;;;;;5086269;28;20231;-83
2023/12/15 01:46:19;;;;;;;13.43;10.18;;;5.70;99.90;;;;;;5078138;28;20209;-83
2023/12/15 01:48:46;;;;;;;14.37;10.20;;;5.70;99.90;;;;;;5078064;28;20203;-83
2023/12/15 01:51:12;;;;;;;13.23;10.25;;;5.70;99.90;;;;;;5081649;28;20209;-83
2023/12/15 01:53:39;;;;;;;12.35;9.65;;;5.50;99.90;;;;;;5082992;28;20656;-83
2023/12/15 01:56:09;;;;;;;11.50;9.52;;;5.60;99.90;;;;;;5074252;28;20198;-83
2023/12/15 01:58:36;;;;;;;10.40;8.40;;;5.60;99.90;;;;;;5080869;28;20201;-83
2023/12/15 02:01:04;;;;;;;9.43;7.50;;;5.60;99.90;;;;;;5077336;28;20671;-83
2023/12/15 02:03:32;;;;;;;8.10;5.63;;;5.50;99.90;;;;;;5083705;28;20487;-81
2023/12/15 02:05:59;;;;;;;6.87;5.47;;;5.50;99.90;;;;;;5077620;28;20233;-82
2023/12/15 02:08:26;;;;;;;5.17;4.67;;;5.40;99.90;;;;;;5080818;28;20188;-80
2023/12/15 02:10:53;;;;;;;6.53;4.80;;;5.10;99.90;;;;;;5085140;28;20208;-80
2023/12/15 02:13:20;;;;;;;5.83;4.73;;;5.00;99.90;;;;;;5085430;28;20193;-80
2023/12/15 02:15:47;;;;;;;4.00;3.53;;;4.90;99.90;;;;;;5078428;28;20197;-80
2023/12/15 02:18:13;;;;;;;5.17;4.67;;;4.80;99.90;;;;;;5075502;28;21051;-81
2023/12/15 02:20:41;;;;;;;5.03;4.50;;;4.90;99.90;;;;;;5075501;28;20292;-80
2023/12/15 02:23:10;;;;;;;5.70;4.60;;;4.90;99.90;;;;;;5078199;28;20197;-84
2023/12/15 02:25:36;;;;;;;4.17;3.77;;;4.90;99.90;;;;;;5081829;28;20827;-80
2023/12/15 02:28:04;;;;;;;4.73;3.80;;;4.80;99.90;;;;;;5082307;28;20202;-80
2023/12/15 02:30:31;;;;;;;4.63;4.00;;;4.80;99.90;;;;;;5083020;28;20283;-80
2023/12/15 02:32:58;;;;;;;7.57;4.17;;;4.80;99.90;;;;;;5085727;28;20196;-82
2023/12/15 02:35:25;;;;;;;4.60;4.10;;;4.90;99.90;;;;;;5082900;28;20204;-83
2023/12/15 02:37:51;;;;;;;5.17;4.40;;;4.90;99.90;;;;;;5082271;28;20205;-83
2023/12/15 02:40:20;;;;;;;5.67;4.90;;;5.00;99.90;;;;;;5080141;28;20688;-82
2023/12/15 02:42:47;;;;;;;5.60;4.73;;;4.80;99.90;;;;;;5083251;28;20200;-83
2023/12/15 02:45:13;;;;;;;5.90;4.97;;;5.00;99.90;;;;;;5079845;28;20227;-83
2023/12/15 02:47:40;;;;;;;6.27;5.40;;;5.00;99.90;;;;;;5078109;28;20224;-83
2023/12/15 02:50:10;;;;;;;8.27;5.00;;;5.00;99.90;;;;;;5080191;28;20209;-82
2023/12/15 02:52:37;;;;;;;5.87;5.10;;;5.00;99.90;;;;;;5088447;28;20196;-83
2023/12/15 02:55:04;;;;;;;6.57;5.40;;;5.00;99.90;;;;;;5082430;28;20211;-83
2023/12/15 02:57:33;;;;;;;6.70;5.67;;;5.10;99.90;;;;;;5092012;28;20192;-83
2023/12/15 03:00:00;;;;;;;6.60;5.77;;;5.20;99.90;;;;;;5076700;28;20196;-83
2023/12/15 03:02:27;;;;;;;7.27;6.23;;;5.10;99.90;;;;;;5085001;28;20579;-82
2023/12/15 03:04:54;;;;;;;6.53;5.70;;;5.10;99.90;;;;;;5080155;28;20208;-83
2023/12/15 03:07:20;;;;;;;10.53;6.30;;;4.90;99.90;;;;;;5081789;28;20239;-83
2023/12/15 03:09:47;;;;;;;8.00;6.40;;;5.00;99.90;;;;;;5075722;28;20200;-83
2023/12/15 03:12:14;;;;;;;8.47;5.93;;;5.10;99.90;;;;;;5081279;28;20192;-82
2023/12/15 03:14:42;;;;;;;8.20;6.13;;;5.10;99.90;;;;;;5086452;28;20236;-82
2023/12/15 03:17:09;;;;;;;8.60;6.27;;;5.20;99.90;;;;;;5074406;28;20221;-84
2023/12/15 03:19:39;;;;;;;7.27;6.10;;;5.10;99.90;;;;;;5082312;28;20200;-83
2023/12/15 03:22:05;;;;;;;8.20;6.40;;;5.10;99.90;;;;;;5083321;28;20206;-83
2023/12/15 03:24:32;;;;;;;8.33;6.67;;;5.00;99.90;;;;;;5085946;28;20212;-83
2023/12/15 03:26:59;;;;;;;7.83;6.47;;;5.00;99.90;;;;;;5079311;28;20217;-83
2023/12/15 03:29:26;;;;;;;8.23;6.40;;;5.00;99.90;;;;;;5077781;28;20196;-83
2023/12/15 03:31:54;;;;;;;8.67;6.73;;;5.00;99.90;;;;;;5083380;28;20197;-83
2023/12/15 03:34:21;;;;;;;7.93;6.80;;;5.10;99.90;;;;;;5073792;28;20740;-82
2023/12/15 03:36:47;;;;;;;9.60;7.17;;;5.10;99.90;;;;;;5086593;28;20205;-82
2023/12/15 03:39:14;;;;;;;9.90;7.20;;;5.10;99.90;;;;;;5081896;28;20197;-83
2023/12/15 03:41:41;;;;;;;8.77;6.87;;;5.00;99.90;;;;;;5077215;28;20197;-82
2023/12/15 03:44:08;;;;;;;10.17;7.50;;;5.00;99.90;;;;;;5079072;28;20197;-86
2023/12/15 03:46:35;;;;;;;10.17;6.90;;;5.00;99.90;;;;;;5084139;28;20571;-83
2023/12/15 03:49:03;;;;;;;8.87;6.90;;;5.00;99.90;;;;;;5079132;28;20201;-82
2023/12/15 03:51:30;;;;;;;11.10;7.40;;;5.00;99.90;;;;;;5074390;28;20552;-85
2023/12/15 03:53:56;;;;;;;10.10;7.47;;;5.00;99.90;;;;;;5086510;28;20193;-83
2023/12/15 03:56:26;;;;;;;9.63;7.20;;;4.90;99.90;;;;;;5077203;28;20201;-83
2023/12/15 03:58:53;;;;;;;9.67;7.53;;;5.00;99.90;;;;;;5081553;28;20204;-83
2023/12/15 04:01:20;;;;;;;9.17;7.23;;;5.10;99.90;;;;;;5072420;28;20663;-84
2023/12/15 04:03:47;;;;;;;9.73;7.50;;;5.00;99.90;;;;;;5075205;28;20200;-83
2023/12/15 04:06:15;;;;;;;9.30;6.87;;;5.10;99.90;;;;;;5082406;28;20205;-84
2023/12/15 04:08:42;;;;;;;9.67;7.47;;;4.90;99.90;;;;;;5078543;28;20203;-82
2023/12/15 04:11:09;;;;;;;10.10;7.33;;;4.90;99.90;;;;;;5083984;28;20226;-85
2023/12/15 04:13:37;;;;;;;9.23;7.53;;;4.90;99.90;;;;;;5082751;28;20220;-82
2023/12/15 04:16:05;;;;;;;9.20;6.47;;;4.90;99.90;;;;;;5080343;28;20200;-83
2023/12/15 04:18:33;;;;;;;10.77;7.07;;;4.90;99.90;;;;;;5077329;28;20341;-82
2023/12/15 04:21:02;;;;;;;9.13;6.93;;;4.90;99.90;;;;;;5079186;28;20193;-82
2023/12/15 04:23:30;;;;;;;8.57;6.33;;;4.90;99.90;;;;;;5078314;28;20231;-82
2023/12/15 04:25:58;;;;;;;9.20;7.10;;;4.80;99.90;;;;;;5077485;28;20216;-82
2023/12/15 04:28:25;;;;;;;11.17;6.80;;;4.80;99.90;;;;;;5080289;28;20239;-83
2023/12/15 04:30:51;;;;;;;9.87;7.30;;;4.90;99.90;;;;;;5077087;28;20676;-82
2023/12/15 04:33:18;;;;;;;10.03;7.87;;;4.80;99.90;;;;;;5074874;28;20201;-82
2023/12/15 04:35:45;;;;;;;8.70;7.23;;;4.70;99.90;;;;;;5078212;28;20201;-82
2023/12/15 04:38:12;;;;;;;10.30;7.60;;;4.70;99.90;;;;;;5078400;28;20560;-82
2023/12/15 04:40:40;;;;;;;9.30;7.40;;;4.80;99.90;;;;;;5074744;28;20193;-82
2023/12/15 04:43:07;;;;;;;10.73;8.10;;;4.80;99.90;;;;;;5080284;28;20212;-82
2023/12/15 04:45:34;;;;;;;9.70;7.87;;;4.80;99.90;;;;;;5076783;28;20195;-82
2023/12/15 04:48:01;;;;;;;10.50;7.87;;;4.90;99.90;;;;;;5087951;28;20216;-85
2023/12/15 04:50:28;;;;;;;9.50;7.57;;;4.90;99.90;;;;;;5077141;28;20213;-81
2023/12/15 04:52:55;;;;;;;9.07;7.10;;;4.80;99.90;;;;;;5084820;28;20200;-81
2023/12/15 04:55:21;;;;;;;8.63;6.97;;;4.90;99.90;;;;;;5081720;28;20189;-83
2023/12/15 04:57:50;;;;;;;9.77;7.63;;;4.90;99.90;;;;;;5082389;28;20205;-83
2023/12/15 05:00:17;;;;;;;10.63;7.93;;;4.70;99.90;;;;;;5078063;28;20204;-82
2023/12/15 05:02:44;;;;;;;10.67;8.43;;;4.70;99.90;;;;;;5073900;28;20204;-83
2023/12/15 05:05:11;;;;;;;11.37;8.37;;;4.70;99.90;;;;;;5078478;28;20197;-84
2023/12/15 05:07:38;;;;;;;10.73;7.70;;;4.70;99.90;;;;;;5082513;28;20222;-82
2023/12/15 05:10:05;;;;;;;9.57;7.13;;;4.70;99.90;;;;;;5084110;28;20193;-83
2023/12/15 05:12:34;;;;;;;11.20;7.90;;;4.80;99.90;;;;;;5079026;28;20193;-83
2023/12/15 05:15:02;;;;;;;10.77;7.67;;;4.80;99.90;;;;;;5087769;28;20224;-82
2023/12/15 05:17:29;;;;;;;11.27;7.03;;;4.80;99.90;;;;;;5084672;28;20232;-82
2023/12/15 05:19:56;;;;;;;10.33;7.30;;;4.80;99.90;;;;;;5080122;28;20676;-83
2023/12/15 05:22:23;;;;;;;10.13;7.67;;;4.80;99.90;;;;;;5083068;28;20196;-85
2023/12/15 05:24:50;;;;;;;10.17;7.60;;;4.80;99.90;;;;;;5078671;28;20193;-83
2023/12/15 05:27:17;;;;;;;9.77;7.57;;;4.90;99.90;;;;;;5075517;28;20315;-84
2023/12/15 05:29:45;;;;;;;10.47;7.87;;;4.80;99.90;;;;;;5082830;28;20201;-83
2023/12/15 05:32:14;;;;;;;9.27;7.13;;;4.70;99.90;;;;;;5080845;28;20197;-83
2023/12/15 05:34:41;;;;;;;8.23;6.67;;;4.70;99.90;;;;;;5082264;28;20204;-85
2023/12/15 05:37:08;;;;;;;9.43;7.00;;;4.90;99.90;;;;;;5081038;28;20218;-83
2023/12/15 05:39:35;;;;;;;8.63;6.90;;;4.70;99.90;;;;;;5078649;28;20276;-82
2023/12/15 05:42:01;;;;;;;10.37;7.10;;;4.70;99.90;;;;;;5088499;28;20840;-83
2023/12/15 05:44:28;;;;;;;9.77;6.70;;;4.70;99.90;;;;;;5079071;28;20582;-83
2023/12/15 05:46:55;;;;;;;10.47;6.97;;;4.80;99.90;;;;;;5083274;28;20221;-82
2023/12/15 05:49:24;;;;;;;9.97;7.30;;;4.80;99.90;;;;;;5084980;28;20203;-82
2023/12/15 05:51:50;;;;;;;8.73;6.67;;;4.90;99.90;;;;;;5084318;28;20208;-83
2023/12/15 05:54:17;;;;;;;9.43;7.30;;;5.00;99.90;;;;;;5081818;28;20201;-86
2023/12/15 05:56:44;;;;;;;10.37;7.60;;;5.00;99.90;;;;;;5080003;28;20292;-85
2023/12/15 05:59:12;;;;;;;9.30;6.50;;;5.00;99.90;;;;;;5088880;28;20189;-91
2023/12/15 06:01:38;;;;;;;9.97;8.00;;;4.80;99.90;;;;;;5079715;28;20219;-84
2023/12/15 06:04:05;;;;;;;12.87;9.17;;;4.70;99.90;;;;;;5096102;28;20201;-86
2023/12/15 06:06:33;;;;;;;10.97;7.93;;;4.70;99.90;;;;;;5082475;28;20520;-86
2023/12/15 06:09:00;;;;;;;9.37;7.33;;;4.60;99.90;;;;;;5079521;28;20225;-86
2023/12/15 06:11:27;;;;;;;12.30;8.30;;;4.60;99.90;;;;;;5080044;28;20192;-90
2023/12/15 06:13:54;;;;;;;10.97;8.07;;;4.70;99.90;;;;;;5082404;28;20300;-85
2023/12/15 06:16:21;;;;;;;9.90;7.10;;;4.80;99.90;;;;;;5085005;28;20192;-85
2023/12/15 06:18:49;;;;;;;10.03;7.00;;;4.80;99.90;;;;;;5086616;28;20197;-86
2023/12/15 06:21:23;;;;;;;10.63;7.73;;;4.80;99.90;;;;;;5088028;28;20204;-89
2023/12/15 06:23:51;;;;;;;11.20;7.77;;;4.80;99.90;;;;;;5086393;28;20196;-85
2023/12/15 06:26:19;;;;;;;12.70;8.33;;;4.80;99.90;;;;;;5085353;28;20201;-86
2023/12/15 06:28:46;;;;;;;10.93;7.43;;;4.80;99.90;;;;;;5086177;28;20624;-85
2023/12/15 06:31:13;;;;;;;13.53;8.90;;;4.60;99.90;;;;;;5083757;28;20189;-86
2023/12/15 06:33:39;;;;;;;11.47;7.90;;;4.60;99.90;;;;;;5090704;28;20199;-85
2023/12/15 06:36:07;;;;;;;12.60;8.60;;;4.60;99.90;;;;;;5083284;28;20640;-85
2023/12/15 06:38:35;;;;;;;12.13;8.77;;;4.50;99.90;;;;;;5083142;28;20652;-85
2023/12/15 06:41:04;;;;;;;13.53;9.23;;;4.60;99.90;;;;;;5081164;28;20684;-85
2023/12/15 06:43:31;;;;;;;14.33;8.93;;;4.60;99.90;;;;;;5081188;28;20212;-85
2023/12/15 06:45:57;;;;;;;12.57;9.20;;;4.60;99.90;;;;;;5079977;28;20204;-85
2023/12/15 06:48:25;;;;;;;13.50;8.57;;;4.70;99.90;;;;;;5090910;28;20225;-85
2023/12/15 06:50:51;;;;;;;12.30;8.37;;;4.70;99.90;;;;;;5090417;28;20196;-85
2023/12/15 06:53:18;;;;;;;11.73;8.50;;;4.80;99.90;;;;;;5086266;28;20189;-86
2023/12/15 06:55:45;;;;;;;12.40;8.47;;;4.70;99.90;;;;;;5081871;28;20203;-85
2023/12/15 06:58:13;;;;;;;12.10;8.17;;;4.80;99.90;;;;;;5083484;28;20219;-85
2023/12/15 07:00:40;;;;;;;11.80;8.17;;;4.80;99.90;;;;;;5083548;28;20196;-85
2023/12/15 07:03:07;;;;;;;11.90;8.30;;;4.90;99.90;;;;;;5086152;28;20556;-85
2023/12/15 07:05:34;;;;;;;11.23;8.60;;;5.00;99.90;;;;;;5091403;28;20497;-86
2023/12/15 07:08:01;;;;;;;10.93;8.07;;;5.20;99.90;;;;;;5084705;28;20252;-85
2023/12/15 07:10:28;;;;;;;10.30;8.33;;;5.10;99.90;;;;;;5081288;28;20205;-86
2023/12/15 07:12:55;;;;;;;10.87;8.27;;;4.90;99.90;;;;;;5079351;28;20194;-85
2023/12/15 07:15:25;;;;;;;12.53;8.97;;;4.80;99.90;;;;;;5083322;28;20223;-85
2023/12/15 07:17:52;;;;;;;12.70;8.90;;;4.90;99.90;;;;;;5085407;28;20197;-85
2023/12/15 07:20:18;;;;;;;12.97;8.87;;;4.80;99.90;;;;;;5088530;28;20196;-85
2023/12/15 07:22:45;;;;;;;13.40;9.27;;;4.60;99.90;;;;;;5086277;28;20197;-85
2023/12/15 07:25:12;;;;;;;13.13;8.40;;;4.70;99.90;;;;;;5083883;28;20223;-85
2023/12/15 07:27:39;;;;;;;12.30;8.60;;;4.70;99.90;;;;;;5084117;28;20212;-85
2023/12/15 07:30:07;;;;;;;13.87;9.13;;;4.60;99.90;;;;;;5079843;28;20192;-86
2023/12/15 07:32:35;;;;;;;11.77;8.70;;;4.60;99.90;;;;;;5075741;28;20201;-85
2023/12/15 07:35:03;;;;;;;14.33;9.30;;;4.80;99.90;;;;;;5081266;28;20198;-84
2023/12/15 07:37:30;;;;;;;12.73;9.07;;;5.00;99.90;;;;;;5082041;28;20197;-85
2023/12/15 07:39:57;;;;;;;12.00;8.67;;;4.90;99.90;;;;;;5082106;28;20201;-85
2023/12/15 07:42:24;;;;;;;12.03;8.80;;;4.80;99.90;;;;;;5076175;28;20200;-85
2023/12/15 07:44:51;;;;;;;11.00;8.47;;;4.80;99.90;;;;;;5077148;28;20207;-85
2023/12/15 07:47:17;;;;;;;11.93;8.53;;;4.80;99.90;;;;;;5086608;28;20560;-85
2023/12/15 07:49:45;;;;;;;11.37;8.43;;;4.90;99.90;;;;;;5078166;28;20698;-85
2023/12/15 07:52:12;;;;;;;11.90;8.33;;;5.00;99.90;;;;;;5083920;28;20192;-85
2023/12/15 07:54:39;;;;;;;11.23;8.03;;;4.90;99.90;;;;;;5083492;28;20192;-85
2023/12/15 07:57:06;;;;;;;13.53;8.27;;;4.80;99.90;;;;;;5083118;28;20193;-86
2023/12/15 07:59:35;;;;;;;12.00;8.40;;;4.90;99.90;;;;;;5079088;28;20292;-85
2023/12/15 08:02:03;;;;;;;11.27;8.20;;;4.90;99.90;;;;;;5088910;28;20200;-85
2023/12/15 08:04:30;;;;;;;12.40;8.17;;;4.80;99.90;;;;;;5079739;28;20801;-86
2023/12/15 08:06:58;;;;;;;11.17;7.67;;;4.70;99.90;;;;;;5086345;28;20522;-85
2023/12/15 08:09:25;;;;;;;12.43;8.00;;;4.80;99.90;;;;;;5080999;28;20668;-84
2023/12/15 08:11:52;;;;;;;10.93;7.50;;;4.70;99.90;;;;;;5087446;28;20196;-84
2023/12/15 08:14:19;;;;;;;11.90;7.80;;;4.70;99.90;;;;;;5089467;28;20215;-84
2023/12/15 08:16:46;;;;;;;9.57;7.27;;;4.80;99.90;;;;;;5079692;28;20199;-85
2023/12/15 08:19:12;;;;;;;8.87;6.57;;;4.80;99.90;;;;;;5080607;28;20561;-84
2023/12/15 08:21:39;;;;;;;9.63;7.30;;;4.70;99.90;;;;;;5085710;28;20551;-85
2023/12/15 08:24:08;;;;;;;11.07;6.97;;;4.60;99.90;;;;;;5088115;28;20193;-84
2023/12/15 08:26:34;;;;;;;9.20;7.30;;;4.60;99.90;;;;;;5086364;28;20242;-84
2023/12/15 08:29:01;;;;;;;8.93;7.07;;;4.70;99.90;;;;;;5081840;28;20267;-84
2023/12/15 08:31:28;;;;;;;10.83;8.17;;;4.80;99.90;;;;;;5083318;28;20197;-84
2023/12/15 08:33:55;;;;;;;12.43;7.90;;;4.90;99.90;;;;;;5087138;28;20193;-86
2023/12/15 08:36:22;;;;;;;9.17;7.00;;;4.90;99.90;;;;;;5080907;28;20199;-86
2023/12/15 08:38:49;;;;;;;9.73;7.07;;;4.90;99.90;;;;;;5076582;28;20207;-83
2023/12/15 08:41:17;;;;;;;10.03;7.30;;;4.70;99.90;;;;;;5082977;28;20201;-87
2023/12/15 08:43:44;;;;;;;9.20;6.90;;;4.90;99.90;;;;;;5079550;28;20438;-86
2023/12/15 08:46:11;;;;;;;9.50;7.47;;;5.00;99.90;;;;;;5073601;28;20251;-86
2023/12/15 08:48:37;;;;;;;9.47;7.00;;;4.90;99.90;;;;;;5072784;28;20227;-87
2023/12/15 08:51:04;;;;;;;10.77;7.30;;;4.90;99.90;;;;;;5083484;28;20219;-84
2023/12/15 08:53:31;;;;;;;10.67;6.93;;;4.80;99.90;;;;;;5074450;28;20645;-84
2023/12/15 08:55:58;;;;;;;9.97;7.30;;;4.70;99.90;;;;;;5077876;28;20189;-84
2023/12/15 08:58:28;;;;;;;10.33;7.47;;;4.70;99.90;;;;;;5073705;28;20204;-84
2023/12/15 09:00:55;;;;;;;8.97;6.87;;;4.60;99.90;;;;;;5080472;28;20707;-85
2023/12/15 09:03:22;;;;;;;10.17;7.00;;;4.60;99.90;;;;;;5084829;28;20601;-86
2023/12/15 09:05:49;;;;;;;9.73;6.67;;;4.80;99.90;;;;;;5077726;28;20203;-86
2023/12/15 09:08:15;;;;;;;9.07;6.67;;;4.90;99.90;;;;;;5087679;28;20220;-86
2023/12/15 09:10:46;;;;;;;7.43;6.50;;;4.80;99.90;;;;;;5083285;28;20189;-85
2023/12/15 09:13:14;;;;;;;10.33;6.97;;;4.80;99.90;;;;;;5082126;28;20201;-85
2023/12/15 09:15:42;;;;;;;8.60;6.60;;;4.90;99.90;;;;;;5079709;28;20208;-86
2023/12/15 09:18:09;;;;;;;9.07;6.17;;;5.00;99.40;;;;;;5079262;28;20205;-85
2023/12/15 09:20:36;;;;;;;8.97;6.27;;;5.10;99.90;;;;;;5073448;28;20201;-86
2023/12/15 09:23:07;;;;;;;8.27;6.33;;;5.00;99.10;;;;;;5082989;28;20193;-85
2023/12/15 09:25:33;;;;;;;8.67;6.40;;;5.10;99.10;;;;;;5084530;28;20197;-86
2023/12/15 09:28:02;;;;;;;7.00;5.43;;;5.10;98.90;;;;;;5086781;28;20190;-85
2023/12/15 09:30:29;;;;;;;8.10;6.20;;;5.20;99.00;;;;;;5079732;28;20205;-86
2023/12/15 09:32:57;;;;;;;8.27;5.77;;;5.10;99.00;;;;;;5086922;28;20200;-85
2023/12/15 09:35:24;;;;;;;9.00;6.17;;;4.90;98.70;;;;;;5082803;28;20649;-85
2023/12/15 09:37:51;;;;;;;7.87;5.93;;;4.80;99.00;;;;;;5089267;28;20201;-85
2023/12/15 09:40:23;;;;;;;8.07;6.47;;;4.80;99.20;;;;;;5086668;28;20212;-86
2023/12/15 09:42:50;;;;;;;6.57;5.20;;;4.90;99.40;;;;;;5084262;28;20235;-85
2023/12/15 09:45:17;;;;;;;9.27;6.10;;;4.90;98.80;;;;;;5086086;28;20679;-86
2023/12/15 09:47:47;;;;;;;8.40;5.90;;;4.90;99.10;;;;;;5078909;28;20193;-86
2023/12/15 09:50:17;;;;;;;9.20;6.37;;;4.90;99.00;;;;;;5079507;28;20227;-86
2023/12/15 09:52:44;;;;;;;10.40;5.87;;;4.80;99.70;;;;;;5083079;28;20196;-86
2023/12/15 09:55:11;;;;;;;8.00;5.80;;;4.80;99.40;;;;;;5088543;28;20201;-86
2023/12/15 09:57:39;;;;;;;10.37;7.30;;;4.80;99.60;;;;;;5083252;28;20676;-86
2023/12/15 10:00:08;;;;;;;7.67;5.87;;;4.90;99.90;;;;;;5082725;28;20327;-86
2023/12/15 10:02:36;;;;;;;9.17;6.57;;;5.00;99.50;;;;;;5087776;28;20200;-86
2023/12/15 10:05:03;;;;;;;10.93;7.43;;;5.20;99.00;;;;;;5083539;28;20205;-85
2023/12/15 10:07:31;;;;;;;11.30;7.67;;;5.20;99.40;;;;;;5076915;28;20205;-85
2023/12/15 10:09:58;;;;;;;7.47;6.17;;;5.30;99.20;;;;;;5083761;28;20899;-85
2023/12/15 10:12:25;;;;;;;8.47;5.87;;;5.40;98.50;;;;;;5079844;28;20201;-85
2023/12/15 10:14:52;;;;;;;16.83;11.83;;;5.40;98.50;;;;;;5077401;28;20228;-85
2023/12/15 10:17:19;;;;;;;24.50;16.87;;;5.40;98.60;;;;;;5090985;28;20672;-85
2023/12/15 10:19:46;;;;;;;7.43;5.50;;;5.40;98.90;;;;;;5081435;28;20206;-86
2023/12/15 10:22:13;;;;;;;25.67;17.67;;;5.30;98.50;;;;;;5080978;28;20671;-85
2023/12/15 10:24:41;;;;;;;12.07;9.13;;;5.30;99.20;;;;;;5085012;28;20672;-85
2023/12/15 10:27:08;;;;;;;18.13;10.80;;;5.40;98.80;;;;;;5080614;28;20247;-85
2023/12/15 10:29:38;;;;;;;9.03;6.27;;;5.40;98.60;;;;;;5078023;28;20871;-85
2023/12/15 10:32:06;;;;;;;6.67;5.73;;;5.20;98.60;;;;;;5080283;28;20190;-85
2023/12/15 10:34:33;;;;;;;7.70;6.17;;;5.20;98.90;;;;;;5079421;28;20198;-85
2023/12/15 10:37:01;;;;;;;8.33;6.37;;;5.20;99.30;;;;;;5080924;28;20193;-85
2023/12/15 10:39:29;;;;;;;11.53;7.20;;;5.20;98.90;;;;;;5082769;28;20208;-85
2023/12/15 10:41:58;;;;;;;9.63;6.97;;;5.10;99.10;;;;;;5080214;28;20201;-85
2023/12/15 10:44:26;;;;;;;8.37;7.00;;;5.20;99.10;;;;;;5080878;28;20211;-85
2023/12/15 10:46:53;;;;;;;7.87;6.00;;;5.30;99.20;;;;;;5082281;28;20196;-86
2023/12/15 10:49:21;;;;;;;10.13;6.10;;;5.30;98.10;;;;;;5077723;28;20224;-85
2023/12/15 10:51:48;;;;;;;9.53;6.33;;;5.10;98.80;;;;;;5084531;28;20197;-85
2023/12/15 10:54:17;;;;;;;9.27;6.83;;;5.20;98.90;;;;;;5086082;28;20193;-85
2023/12/15 10:56:45;;;;;;;9.17;6.20;;;5.20;98.80;;;;;;5074999;28;20617;-84
2023/12/15 10:59:13;;;;;;;7.83;5.50;;;5.20;98.30;;;;;;5083294;28;20201;-85
2023/12/15 11:01:43;;;;;;;7.70;6.10;;;5.10;98.40;;;;;;5086600;28;20199;-85
2023/12/15 11:04:28;;;;;;;15.23;10.83;;;5.10;99.00;;;;;;5080521;28;20622;-86
2023/12/15 11:06:55;;;;;;;7.80;6.20;;;5.10;98.50;;;;;;5079767;28;20200;-85
2023/12/15 11:09:32;;;;;;;8.10;6.57;;;5.10;98.50;;;;;;5085572;28;20224;-85
2023/12/15 11:12:22;;;;;;;7.53;6.33;;;5.10;98.90;;;;;;5077784;28;20200;-85
2023/12/15 11:14:54;;;;;;;6.93;5.47;;;5.20;99.20;;;;;;5075395;28;20270;-87
2023/12/15 11:17:21;;;;;;;7.30;5.67;;;5.30;98.40;;;;;;5085237;28;20192;-85
2023/12/15 11:19:52;;;;;;;10.73;6.13;;;5.20;97.50;;;;;;5081010;28;20205;-86
2023/12/15 11:22:18;;;;;;;9.25;5.80;;;5.40;98.30;;;;;;5085635;28;20193;-87
2023/12/15 11:24:45;;;;;;;18.10;11.43;;;5.30;98.20;;;;;;5078820;28;20201;-85
2023/12/15 11:27:13;;;;;;;17.70;13.00;;;5.60;98.40;;;;;;5087352;28;20570;-85
2023/12/15 11:29:40;;;;;;;10.02;6.78;;;5.80;97.80;;;;;;5075873;28;20273;-86
2023/12/15 11:32:33;;;;;;;12.50;9.43;;;5.80;97.20;;;;;;5079382;28;20200;-85
2023/12/15 11:35:00;;;;;;;8.37;6.27;;;5.60;97.80;;;;;;5084641;28;20640;-85
2023/12/15 11:37:27;;;;;;;7.85;6.07;;;5.60;97.60;;;;;;5080909;28;20201;-86
2023/12/15 11:39:55;;;;;;;8.27;5.53;;;5.60;97.80;;;;;;5090961;28;20204;-85
2023/12/15 11:42:22;;;;;;;12.52;9.40;;;5.80;97.70;;;;;;5080216;28;20200;-85
2023/12/15 11:44:50;;;;;;;7.03;6.10;;;5.80;97.80;;;;;;5082440;28;20193;-85
2023/12/15 11:47:16;;;;;;;7.75;5.55;;;6.00;96.40;;;;;;5081807;28;20199;-85
2023/12/15 11:49:45;;;;;;;6.70;5.38;;;5.80;96.10;;;;;;5080905;28;20221;-85
2023/12/15 11:52:12;;;;;;;12.35;9.55;;;5.60;96.80;;;;;;5079990;28;20642;-85
2023/12/15 11:54:39;;;;;;;10.57;8.18;;;5.70;97.80;;;;;;5076144;28;20653;-85
2023/12/15 11:57:06;;;;;;;17.83;13.35;;;5.80;97.30;;;;;;5089266;28;20287;-86
2023/12/15 11:59:37;;;;;;;11.80;7.00;;;5.90;96.70;;;;;;5086675;28;20233;-85
2023/12/15 12:02:06;;;;;;;22.85;17.23;;;6.20;95.30;;;;;;5081838;28;20197;-85
2023/12/15 12:04:33;;;;;;;6.78;5.25;;;6.30;95.40;;;;;;5080909;28;20204;-85
2023/12/15 12:07:02;;;;;;;6.20;4.80;;;6.20;94.40;;;;;;5085040;28;20193;-85
2023/12/15 12:09:29;;;;;;;9.73;7.43;;;6.00;95.30;;;;;;5082180;28;21283;-85
2023/12/15 12:11:57;;;;;;;9.30;5.43;;;5.90;95.30;;;;;;5081347;28;20641;-85
2023/12/15 12:14:29;;;;;;;6.87;5.43;;;6.00;95.30;;;;;;5072524;28;20227;-84
2023/12/15 12:16:59;;;;;;;11.40;8.03;;;5.90;95.30;;;;;;5077743;28;20196;-83
2023/12/15 12:19:26;;;;;;;15.07;9.70;;;5.90;95.80;;;;;;5082492;28;20266;-86
2023/12/15 12:21:54;;;;;;;9.30;7.38;;;5.90;95.90;;;;;;5086304;28;20250;-84
2023/12/15 12:24:22;;;;;;;6.68;5.32;;;6.10;95.60;;;;;;5081762;28;20193;-84
2023/12/15 12:26:51;;;;;;;6.45;5.32;;;6.10;95.30;;;;;;5084062;28;20193;-84
2023/12/15 12:29:18;;;;;;;10.20;6.63;;;6.10;95.20;;;;;;5091331;28;20269;-83
2023/12/15 12:31:46;;;;;;;8.63;6.40;;;6.20;95.30;;;;;;5083938;28;20203;-84
2023/12/15 12:34:12;;;;;;;8.82;5.57;;;6.40;94.40;;;;;;5082949;28;20585;-85
2023/12/15 12:36:39;;;;;;;7.75;6.25;;;6.40;94.10;;;;;;5083211;28;20201;-84
2023/12/15 12:39:06;;;;;;;5.75;5.00;;;6.30;94.80;;;;;;5075645;28;20205;-85
2023/12/15 12:41:34;;;;;;;8.65;6.90;;;6.10;94.50;;;;;;5078562;28;20207;-85
2023/12/15 12:44:01;;;;;;;6.57;5.40;;;6.20;95.30;;;;;;5080950;28;20196;-85
2023/12/15 12:46:28;;;;;;;7.77;5.33;;;6.30;94.50;;;;;;5084096;28;20201;-86
2023/12/15 12:48:55;;;;;;;7.10;5.22;;;6.30;94.80;;;;;;5078948;28;20212;-84
2023/12/15 12:51:23;;;;;;;5.60;4.95;;;6.20;94.90;;;;;;5084791;28;20578;-84
2023/12/15 12:53:50;;;;;;;6.43;5.77;;;6.10;95.30;;;;;;5080441;28;20202;-84